createdAt,value
2023-03-02T00:01:49.889Z,101468.16
2023-03-02T00:04:21.238Z,101463.69
2023-03-02T00:06:51.306Z,101460.92
2023-03-02T00:09:19.635Z,101457.24
2023-03-02T00:11:47.763Z,101457.43
2023-03-02T00:14:15.982Z,101456.67
2023-03-02T00:16:44.168Z,101462.91
2023-03-02T00:19:12.336Z,101466.28
2023-03-02T00:21:41.530Z,101469.67
2023-03-02T00:24:10.113Z,101465.30
2023-03-02T00:26:38.492Z,101460.56
2023-03-02T00:29:07.694Z,101460.48
2023-03-02T00:31:35.872Z,101456.48
2023-03-02T00:34:04.548Z,101451.16
2023-03-02T00:36:33.136Z,101450.09
2023-03-02T00:39:01.412Z,101449.88
2023-03-02T00:41:29.386Z,101449.36
2023-03-02T00:43:57.568Z,101447.70
2023-03-02T00:46:25.967Z,101452.01
2023-03-02T00:48:54.525Z,101450.48
2023-03-02T00:51:22.792Z,101445.73
2023-03-02T00:53:50.984Z,101450.33
2023-03-02T00:56:19.348Z,101441.35
2023-03-02T00:58:48.338Z,101437.36
2023-03-02T01:01:18.680Z,101429.64
2023-03-02T01:03:50.426Z,101425.77
2023-03-02T01:06:20.554Z,101421.05
2023-03-02T01:08:49.032Z,101420.20
2023-03-02T01:11:19.328Z,101416.92
2023-03-02T01:13:48.039Z,101412.92
2023-03-02T01:16:16.385Z,101420.36
2023-03-02T01:18:44.498Z,101423.40
2023-03-02T01:21:15.334Z,101425.88
2023-03-02T01:23:43.402Z,101424.72
2023-03-02T01:26:11.896Z,101418.09
2023-03-02T01:28:39.959Z,101414.70
2023-03-02T01:31:08.487Z,101411.75
2023-03-02T01:33:36.614Z,101414.09
2023-03-02T01:36:05.096Z,101417.09
2023-03-02T01:38:33.425Z,101419.54
2023-03-02T01:41:01.849Z,101422.39
2023-03-02T01:43:29.922Z,101416.09
2023-03-02T01:46:13.349Z,101411.62
2023-03-02T01:49:02.090Z,101412.98
2023-03-02T01:51:46.266Z,101413.69
2023-03-02T01:54:23.215Z,101410.45
2023-03-02T01:56:57.261Z,101413.66
2023-03-02T01:59:27.072Z,101412.95
2023-03-02T02:01:58.925Z,101413.54
2023-03-02T02:04:28.949Z,101413.72
2023-03-02T02:07:00.112Z,101413.33
2023-03-02T02:09:30.366Z,101410.77
2023-03-02T02:11:58.685Z,101408.71
2023-03-02T02:14:27.168Z,101406.58
2023-03-02T02:16:55.301Z,101407.66
2023-03-02T02:19:49.937Z,101407.16
2023-03-02T02:22:29.070Z,101408.65
2023-03-02T02:24:59.288Z,101406.42
2023-03-02T02:27:29.930Z,101406.13
2023-03-02T02:29:58.612Z,101409.70
2023-03-02T02:32:30.898Z,101412.27
2023-03-02T02:35:02.127Z,101416.77
2023-03-02T02:37:33.408Z,101420.19
2023-03-02T02:40:07.330Z,101418.38
2023-03-02T02:42:38.732Z,101424.05
2023-03-02T02:45:18.067Z,101421.97
2023-03-02T02:47:46.452Z,101420.87
2023-03-02T02:50:32.539Z,101418.66
2023-03-02T02:53:29.899Z,101421.29
2023-03-02T02:55:58.786Z,101423.09
2023-03-02T02:58:26.967Z,101421.27
2023-03-02T03:00:55.654Z,101421.59
2023-03-02T03:03:34.884Z,101418.13
2023-03-02T03:06:07.470Z,101419.30
2023-03-02T03:08:41.784Z,101419.45
2023-03-02T03:11:12.001Z,101423.66
2023-03-02T03:13:41.199Z,101423.56
2023-03-02T03:16:12.651Z,101425.98
2023-03-02T03:18:45.432Z,101423.77
2023-03-02T03:21:13.903Z,101420.04
2023-03-02T03:23:42.108Z,101423.25
2023-03-02T03:26:10.770Z,101417.56
2023-03-02T03:28:39.260Z,101415.55
2023-03-02T03:31:07.967Z,101418.00
2023-03-02T03:33:36.316Z,101417.33
2023-03-02T03:36:04.832Z,101421.77
2023-03-02T03:38:33.071Z,101426.82
2023-03-02T03:41:01.361Z,101420.97
2023-03-02T03:43:29.738Z,101425.80
2023-03-02T03:45:58.090Z,101427.89
2023-03-02T03:48:26.383Z,101429.58
2023-03-02T03:50:55.049Z,101432.38
2023-03-02T03:53:23.640Z,101434.60
2023-03-02T03:55:51.866Z,101431.98
2023-03-02T03:58:20.112Z,101433.33
2023-03-02T04:00:48.889Z,101438.08
2023-03-02T04:03:18.704Z,101435.15
2023-03-02T04:05:47.397Z,101437.67
2023-03-02T04:08:16.281Z,101438.66
2023-03-02T04:10:44.554Z,101438.19
2023-03-02T04:13:13.446Z,101438.46
2023-03-02T04:15:42.602Z,101443.17
2023-03-02T04:18:11.022Z,101445.44
2023-03-02T04:20:39.197Z,101438.34
2023-03-02T04:23:07.783Z,101440.43
2023-03-02T04:25:35.751Z,101439.36
2023-03-02T04:28:09.459Z,101441.85
2023-03-02T04:30:40.298Z,101448.24
2023-03-02T04:33:08.910Z,101445.36
2023-03-02T04:35:37.218Z,101448.96
2023-03-02T04:38:05.848Z,101451.34
2023-03-02T04:40:34.539Z,101454.10
2023-03-02T04:43:02.721Z,101452.80
2023-03-02T04:45:31.091Z,101453.67
2023-03-02T04:47:59.271Z,101460.20
2023-03-02T04:50:27.555Z,101465.98
2023-03-02T04:52:55.617Z,101466.48
2023-03-02T04:55:24.924Z,101472.02
2023-03-02T04:57:53.299Z,101477.03
2023-03-02T05:00:21.987Z,101478.82
2023-03-02T05:02:50.261Z,101481.81
2023-03-02T05:05:19.969Z,101478.39
2023-03-02T05:07:48.148Z,101487.55
2023-03-02T05:10:17.750Z,101486.33
2023-03-02T05:12:55.254Z,101488.59
2023-03-02T05:15:24.442Z,101493.87
2023-03-02T05:17:52.718Z,101492.09
2023-03-02T05:20:21.300Z,101494.64
2023-03-02T05:22:49.385Z,101493.73
2023-03-02T05:25:17.342Z,101494.11
2023-03-02T05:27:46.450Z,101497.54
2023-03-02T05:30:14.925Z,101497.67
2023-03-02T05:32:43.198Z,101499.86
2023-03-02T05:35:11.386Z,101502.32
2023-03-02T05:37:44.975Z,101506.73
2023-03-02T05:40:14.827Z,101506.94
2023-03-02T05:42:43.372Z,101504.04
2023-03-02T05:45:19.436Z,101503.64
2023-03-02T05:47:48.238Z,101503.77
2023-03-02T05:50:16.717Z,101504.71
2023-03-02T05:52:47.641Z,101505.62
2023-03-02T05:55:16.732Z,101510.95
2023-03-02T05:57:45.418Z,101508.65
2023-03-02T06:00:14.003Z,101505.89
2023-03-02T06:02:42.748Z,101502.38
2023-03-02T06:05:12.091Z,101504.66
2023-03-02T06:07:40.163Z,101511.05
2023-03-02T06:10:09.089Z,101510.77
2023-03-02T06:12:37.638Z,101508.85
2023-03-02T06:15:06.936Z,101508.80
2023-03-02T06:17:35.318Z,101508.39
2023-03-02T06:20:06.415Z,101514.52
2023-03-02T06:22:34.637Z,101511.00
2023-03-02T06:25:02.813Z,101512.64
2023-03-02T06:27:30.883Z,101515.99
2023-03-02T06:29:58.952Z,101517.77
2023-03-02T06:32:27.257Z,101515.61
2023-03-02T06:34:55.445Z,101522.96
2023-03-02T06:37:23.988Z,101526.23
2023-03-02T06:39:52.062Z,101528.68
2023-03-02T06:42:20.239Z,101528.35
2023-03-02T06:44:48.723Z,101530.85
2023-03-02T06:47:16.860Z,101529.13
2023-03-02T06:49:44.869Z,101535.77
2023-03-02T06:52:14.469Z,101529.06
2023-03-02T06:54:42.542Z,101528.75
2023-03-02T06:57:10.838Z,101526.73
2023-03-02T06:59:38.889Z,101530.52
2023-03-02T07:02:06.961Z,101531.41
2023-03-02T07:04:35.343Z,101524.88
2023-03-02T07:07:03.309Z,101522.39
2023-03-02T07:09:34.553Z,101518.65
2023-03-02T07:12:02.653Z,101516.04
2023-03-02T07:14:30.801Z,101514.63
2023-03-02T07:17:00.448Z,101520.67
2023-03-02T07:19:28.684Z,101527.20
2023-03-02T07:21:56.756Z,101521.14
2023-03-02T07:24:24.723Z,101518.91
2023-03-02T07:26:53.005Z,101520.11
2023-03-02T07:29:20.961Z,101520.21
2023-03-02T07:31:51.535Z,101521.34
2023-03-02T07:34:19.567Z,101529.64
2023-03-02T07:36:47.898Z,101532.20
2023-03-02T07:39:16.132Z,101528.05
2023-03-02T07:41:45.017Z,101528.64
2023-03-02T07:44:14.537Z,101530.27
2023-03-02T07:46:42.823Z,101528.35
2023-03-02T07:49:11.282Z,101526.75
2023-03-02T07:51:39.768Z,101524.73
2023-03-02T07:54:08.142Z,101526.48
2023-03-02T07:56:36.420Z,101521.11
2023-03-02T07:59:04.501Z,101526.08
2023-03-02T08:01:32.703Z,101525.26
2023-03-02T08:04:01.001Z,101525.79
2023-03-02T08:06:28.956Z,101522.34
2023-03-02T08:08:57.599Z,101518.25
2023-03-02T08:11:25.685Z,101522.91
2023-03-02T08:13:53.949Z,101521.55
2023-03-02T08:16:22.388Z,101518.69
2023-03-02T08:18:50.614Z,101519.83
2023-03-02T08:21:20.062Z,101524.52
2023-03-02T08:23:48.927Z,101519.09
2023-03-02T08:26:18.407Z,101524.95
2023-03-02T08:28:46.910Z,101523.56
2023-03-02T08:31:15.634Z,101525.08
2023-03-02T08:33:44.788Z,101518.61
2023-03-02T08:36:14.378Z,101522.27
2023-03-02T08:38:42.450Z,101527.89
2023-03-02T08:41:12.677Z,101530.38
2023-03-02T08:43:40.977Z,101533.80
2023-03-02T08:46:10.429Z,101530.73
2023-03-02T08:48:38.756Z,101535.57
2023-03-02T08:51:09.365Z,101534.08
2023-03-02T08:53:39.890Z,101535.23
2023-03-02T08:56:15.643Z,101537.44
2023-03-02T08:58:43.917Z,101533.02
2023-03-02T09:01:16.024Z,101535.40
2023-03-02T09:03:44.568Z,101536.23
2023-03-02T09:06:13.252Z,101540.44
2023-03-02T09:08:41.951Z,101534.89
2023-03-02T09:11:10.736Z,101542.27
2023-03-02T09:13:39.016Z,101547.58
2023-03-02T09:16:08.842Z,101544.02
2023-03-02T09:18:37.082Z,101541.20
2023-03-02T09:21:05.283Z,101543.60
2023-03-02T09:23:34.056Z,101532.29
2023-03-02T09:26:02.650Z,101531.62
2023-03-02T09:28:31.136Z,101532.60
2023-03-02T09:31:00.733Z,101530.41
2023-03-02T09:33:29.316Z,101531.06
2023-03-02T09:35:57.500Z,101535.27
2023-03-02T09:38:25.975Z,101533.58
2023-03-02T09:41:07.428Z,101533.09
2023-03-02T09:43:35.530Z,101534.95
2023-03-02T09:46:22.580Z,101537.48
2023-03-02T09:49:02.108Z,101536.02
2023-03-02T09:51:36.820Z,101531.42
2023-03-02T09:54:12.321Z,101523.71
2023-03-02T09:56:50.805Z,101519.53
2023-03-02T09:59:25.111Z,101524.15
2023-03-02T10:02:21.846Z,101519.77
2023-03-02T10:04:53.436Z,101513.01
2023-03-02T10:07:28.948Z,101509.40
2023-03-02T10:10:03.132Z,101509.98
2023-03-02T10:12:37.069Z,101505.12
2023-03-02T10:15:14.968Z,101500.73
2023-03-02T10:17:46.117Z,101502.63
2023-03-02T10:20:24.896Z,101501.61
2023-03-02T10:22:55.362Z,101493.45
2023-03-02T10:25:26.302Z,101488.67
2023-03-02T10:28:01.849Z,101482.52
2023-03-02T10:30:35.633Z,101483.23
2023-03-02T10:33:09.973Z,101478.17
2023-03-02T10:35:38.907Z,101476.53
2023-03-02T10:38:14.718Z,101472.70
2023-03-02T10:40:44.530Z,101471.19
2023-03-02T10:43:34.211Z,101469.41
2023-03-02T10:46:04.588Z,101474.73
2023-03-02T10:48:33.112Z,101470.13
2023-03-02T10:51:01.191Z,101470.52
2023-03-02T10:53:29.568Z,101469.84
2023-03-02T10:55:57.776Z,101464.02
2023-03-02T10:58:30.628Z,101464.45
2023-03-02T11:01:07.278Z,101465.45
2023-03-02T11:03:36.313Z,101465.97
2023-03-02T11:06:12.457Z,101463.39
2023-03-02T11:08:40.425Z,101454.63
2023-03-02T11:11:21.130Z,101453.42
2023-03-02T11:13:49.309Z,101453.46
2023-03-02T11:16:17.427Z,101447.73
2023-03-02T11:18:57.615Z,101447.57
2023-03-02T11:21:31.026Z,101437.46
2023-03-02T11:24:02.493Z,101438.20
2023-03-02T11:26:50.397Z,101431.91
2023-03-02T11:29:48.038Z,101430.13
2023-03-02T11:32:20.404Z,101428.86
2023-03-02T11:34:51.575Z,101424.50
2023-03-02T11:37:38.136Z,101421.48
2023-03-02T11:40:15.051Z,101413.90
2023-03-02T11:42:45.081Z,101406.31
2023-03-02T11:45:13.798Z,101401.89
2023-03-02T11:47:57.546Z,101399.65
2023-03-02T11:50:32.743Z,101399.41
2023-03-02T11:53:03.997Z,101400.16
2023-03-02T11:55:35.537Z,101401.30
2023-03-02T11:58:04.317Z,101402.92
2023-03-02T12:00:39.892Z,101391.30
2023-03-02T12:03:17.496Z,101388.17
2023-03-02T12:05:47.020Z,101390.35
2023-03-02T12:08:21.909Z,101389.35
2023-03-02T12:11:01.349Z,101386.42
2023-03-02T12:13:31.362Z,101390.95
2023-03-02T12:16:00.447Z,101394.91
2023-03-02T12:18:31.400Z,101387.67
2023-03-02T12:21:06.856Z,101391.15
2023-03-02T12:23:36.246Z,101384.34
2023-03-02T12:26:06.778Z,101390.18
2023-03-02T12:28:39.049Z,101385.32
2023-03-02T12:31:07.323Z,101382.03
2023-03-02T12:33:42.139Z,101379.73
2023-03-02T12:36:12.892Z,101380.90
2023-03-02T12:38:48.149Z,101374.62
2023-03-02T12:41:25.632Z,101378.45
2023-03-02T12:44:12.260Z,101381.62
2023-03-02T12:46:45.011Z,101375.73
2023-03-02T12:49:32.336Z,101371.08
2023-03-02T12:52:02.029Z,101373.45
2023-03-02T12:54:31.959Z,101371.07
2023-03-02T12:57:03.217Z,101369.11
2023-03-02T12:59:31.179Z,101365.43
2023-03-02T13:02:12.199Z,101364.83
2023-03-02T13:04:40.330Z,101367.09
2023-03-02T13:07:15.993Z,101365.01
2023-03-02T13:09:55.702Z,101364.17
2023-03-02T13:12:29.629Z,101362.39
2023-03-02T13:14:58.932Z,101359.27
2023-03-02T13:17:31.830Z,101355.36
2023-03-02T13:20:01.132Z,101355.00
2023-03-02T13:22:29.740Z,101356.57
2023-03-02T13:25:03.750Z,101352.79
2023-03-02T13:27:34.126Z,101350.23
2023-03-02T13:30:10.104Z,101343.75
2023-03-02T13:32:43.481Z,101340.38
2023-03-02T13:35:31.447Z,101339.77
2023-03-02T13:38:02.611Z,101335.39
2023-03-02T13:40:33.098Z,101333.80
2023-03-02T13:43:01.372Z,101327.67
2023-03-02T13:45:32.876Z,101328.17
2023-03-02T13:48:12.671Z,101321.35
2023-03-02T13:50:40.952Z,101320.95
2023-03-02T13:53:11.270Z,101318.30
2023-03-02T13:55:40.066Z,101314.50
2023-03-02T13:58:11.918Z,101313.08
2023-03-02T14:00:40.606Z,101309.67
2023-03-02T14:03:26.393Z,101306.05
2023-03-02T14:05:55.772Z,101309.09
2023-03-02T14:08:23.974Z,101307.52
2023-03-02T14:10:53.703Z,101304.02
2023-03-02T14:13:23.613Z,101299.94
2023-03-02T14:15:53.328Z,101299.51
2023-03-02T14:18:29.365Z,101292.52
2023-03-02T14:20:58.219Z,101291.13
2023-03-02T14:23:27.016Z,101289.99
2023-03-02T14:25:56.245Z,101282.80
2023-03-02T14:28:33.253Z,101281.84
2023-03-02T14:31:01.437Z,101276.38
2023-03-02T14:33:29.886Z,101271.44
2023-03-02T14:35:58.871Z,101268.89
2023-03-02T14:38:28.083Z,101271.18
2023-03-02T14:40:56.100Z,101268.14
2023-03-02T14:43:25.456Z,101263.76
2023-03-02T14:45:53.680Z,101259.20
2023-03-02T14:48:22.107Z,101254.77
2023-03-02T14:50:51.916Z,101250.95
2023-03-02T14:53:23.058Z,101252.26
2023-03-02T14:55:51.439Z,101247.89
2023-03-02T14:58:21.051Z,101247.35
2023-03-02T15:00:49.427Z,101249.13
2023-03-02T15:03:29.629Z,101245.25
2023-03-02T15:06:02.056Z,101241.20
2023-03-02T15:08:30.647Z,101244.09
2023-03-02T15:10:59.038Z,101242.07
2023-03-02T15:13:27.106Z,101242.55
2023-03-02T15:15:57.110Z,101239.62
2023-03-02T15:18:25.903Z,101238.66
2023-03-02T15:20:54.180Z,101240.77
2023-03-02T15:23:22.561Z,101242.76
2023-03-02T15:25:50.858Z,101238.63
2023-03-02T15:28:19.541Z,101240.52
2023-03-02T15:30:48.975Z,101242.09
2023-03-02T15:33:17.225Z,101241.45
2023-03-02T15:35:45.654Z,101241.17
2023-03-02T15:38:14.196Z,101239.57
2023-03-02T15:40:42.552Z,101236.08
2023-03-02T15:43:11.344Z,101239.61
2023-03-02T15:45:44.522Z,101238.77
2023-03-02T15:48:13.739Z,101241.48
2023-03-02T15:50:42.104Z,101241.58
2023-03-02T15:53:10.375Z,101242.09
2023-03-02T15:55:40.495Z,101242.13
2023-03-02T15:58:09.186Z,101244.15
2023-03-02T16:00:38.050Z,101242.95
2023-03-02T16:03:06.278Z,101245.02
2023-03-02T16:05:34.623Z,101250.85
2023-03-02T16:08:03.331Z,101253.29
2023-03-02T16:10:32.311Z,101252.39
2023-03-02T16:13:01.710Z,101257.20
2023-03-02T16:15:30.109Z,101257.42
2023-03-02T16:17:58.571Z,101256.41
2023-03-02T16:20:26.747Z,101255.02
2023-03-02T16:22:55.227Z,101257.17
2023-03-02T16:25:25.868Z,101255.03
2023-03-02T16:27:54.342Z,101255.35
2023-03-02T16:30:23.529Z,101250.79
2023-03-02T16:32:52.061Z,101250.37
2023-03-02T16:35:20.504Z,101249.23
2023-03-02T16:37:48.705Z,101252.84
2023-03-02T16:40:17.378Z,101250.92
2023-03-02T16:42:45.446Z,101251.32
2023-03-02T16:45:14.019Z,101249.98
2023-03-02T16:47:41.995Z,101248.27
2023-03-02T16:50:11.187Z,101251.63
2023-03-02T16:52:39.465Z,101258.27
2023-03-02T16:55:16.030Z,101257.03
2023-03-02T16:57:44.312Z,101255.42
2023-03-02T17:00:15.209Z,101253.00
2023-03-02T17:02:43.953Z,101256.21
2023-03-02T17:05:13.343Z,101255.64
2023-03-02T17:07:41.516Z,101257.33
2023-03-02T17:10:12.558Z,101256.80
2023-03-02T17:12:40.834Z,101259.27
2023-03-02T17:15:11.474Z,101258.35
2023-03-02T17:17:41.544Z,101257.86
2023-03-02T17:20:12.223Z,101261.41
2023-03-02T17:22:40.394Z,101261.58
2023-03-02T17:25:09.185Z,101259.08
2023-03-02T17:27:37.765Z,101252.37
2023-03-02T17:30:06.448Z,101245.45
2023-03-02T17:32:34.644Z,101246.30
2023-03-02T17:35:02.937Z,101249.27
2023-03-02T17:37:31.768Z,101249.26
2023-03-02T17:39:59.787Z,101246.42
2023-03-02T17:42:28.546Z,101247.06
2023-03-02T17:44:56.740Z,101244.55
2023-03-02T17:47:25.264Z,101245.23
2023-03-02T17:49:54.815Z,101238.48
2023-03-02T17:52:23.092Z,101238.08
2023-03-02T17:54:53.786Z,101237.54
2023-03-02T17:57:23.236Z,101237.33
2023-03-02T17:59:51.507Z,101232.16
2023-03-02T18:02:19.897Z,101234.53
2023-03-02T18:04:47.953Z,101234.83
2023-03-02T18:07:16.587Z,101232.75
2023-03-02T18:09:45.126Z,101231.80
2023-03-02T18:12:13.401Z,101238.09
2023-03-02T18:14:41.522Z,101238.27
2023-03-02T18:17:10.465Z,101240.77
2023-03-02T18:19:39.046Z,101236.95
2023-03-02T18:22:07.220Z,101240.08
2023-03-02T18:24:35.929Z,101240.33
2023-03-02T18:27:04.091Z,101242.21
2023-03-02T18:29:33.385Z,101243.11
2023-03-02T18:32:01.591Z,101242.52
2023-03-02T18:34:30.252Z,101240.77
2023-03-02T18:36:58.427Z,101240.50
2023-03-02T18:39:26.711Z,101240.95
2023-03-02T18:41:55.084Z,101240.20
2023-03-02T18:44:28.499Z,101244.90
2023-03-02T18:46:57.601Z,101243.95
2023-03-02T18:49:25.822Z,101243.08
2023-03-02T18:51:56.757Z,101246.25
2023-03-02T18:54:24.960Z,101243.59
2023-03-02T18:56:53.339Z,101245.76
2023-03-02T18:59:21.712Z,101246.46
2023-03-02T19:01:50.190Z,101252.02
2023-03-02T19:04:18.873Z,101253.92
2023-03-02T19:06:46.960Z,101258.55
2023-03-02T19:09:15.031Z,101260.67
2023-03-02T19:11:43.102Z,101253.89
2023-03-02T19:14:11.273Z,101259.23
2023-03-02T19:16:40.303Z,101260.91
2023-03-02T19:19:08.453Z,101260.62
2023-03-02T19:21:36.764Z,101263.20
2023-03-02T19:24:05.221Z,101259.56
2023-03-02T19:26:33.895Z,101260.16
2023-03-02T19:29:01.900Z,101256.72
2023-03-02T19:31:31.443Z,101259.34
2023-03-02T19:34:00.285Z,101256.74
2023-03-02T19:36:28.476Z,101258.23
2023-03-02T19:38:56.625Z,101255.10
2023-03-02T19:41:24.938Z,101255.85
2023-03-02T19:43:54.287Z,101259.16
2023-03-02T19:46:24.695Z,101255.42
2023-03-02T19:48:52.726Z,101253.98
2023-03-02T19:51:21.046Z,101255.95
2023-03-02T19:53:49.229Z,101254.92
2023-03-02T19:56:19.718Z,101257.19
2023-03-02T19:58:49.708Z,101256.68
2023-03-02T20:01:23.507Z,101254.66
2023-03-02T20:03:52.748Z,101253.98
2023-03-02T20:06:21.923Z,101253.65
2023-03-02T20:08:49.955Z,101247.58
2023-03-02T20:11:18.329Z,101246.92
2023-03-02T20:13:46.510Z,101242.52
2023-03-02T20:16:16.000Z,101245.22
2023-03-02T20:18:45.701Z,101243.61
2023-03-02T20:21:13.890Z,101245.73
2023-03-02T20:23:42.577Z,101242.17
2023-03-02T20:26:11.058Z,101246.77
2023-03-02T20:28:39.528Z,101244.64
2023-03-02T20:31:09.583Z,101240.54
2023-03-02T20:33:46.741Z,101240.10
2023-03-02T20:36:16.602Z,101232.57
2023-03-02T20:38:51.490Z,101234.37
2023-03-02T20:41:20.294Z,101232.89
2023-03-02T20:43:48.559Z,101232.15
2023-03-02T20:46:27.353Z,101232.95
2023-03-02T20:48:55.738Z,101230.58
2023-03-02T20:51:24.240Z,101227.48
2023-03-02T20:53:53.276Z,101225.69
2023-03-02T20:56:21.519Z,101218.42
2023-03-02T20:58:49.887Z,101215.55
2023-03-02T21:01:19.928Z,101213.00
2023-03-02T21:03:48.077Z,101210.56
2023-03-02T21:06:16.462Z,101206.09
2023-03-02T21:08:47.438Z,101202.02
2023-03-02T21:11:16.683Z,101199.30
2023-03-02T21:13:45.931Z,101194.12
2023-03-02T21:16:19.398Z,101196.77
2023-03-02T21:18:47.760Z,101189.14
2023-03-02T21:21:16.719Z,101188.06
2023-03-02T21:23:46.659Z,101183.34
2023-03-02T21:26:16.013Z,101180.05
2023-03-02T21:28:44.491Z,101178.23
2023-03-02T21:31:14.838Z,101175.93
2023-03-02T21:33:43.037Z,101175.95
2023-03-02T21:36:22.731Z,101171.69
2023-03-02T21:38:52.318Z,101164.15
2023-03-02T21:41:20.854Z,101158.98
2023-03-02T21:43:49.751Z,101149.13
2023-03-02T21:46:20.167Z,101151.94
2023-03-02T21:48:49.288Z,101151.60
2023-03-02T21:51:17.807Z,101152.34
2023-03-02T21:53:46.387Z,101155.40
2023-03-02T21:56:20.683Z,101151.52
2023-03-02T21:58:49.669Z,101145.20
2023-03-02T22:01:17.802Z,101149.05
2023-03-02T22:03:45.847Z,101143.02
2023-03-02T22:06:21.640Z,101140.62
2023-03-02T22:08:49.899Z,101139.91
2023-03-02T22:11:21.801Z,101144.94
2023-03-02T22:13:50.621Z,101140.38
2023-03-02T22:16:20.343Z,101138.48
2023-03-02T22:18:49.567Z,101137.86
2023-03-02T22:21:26.472Z,101139.23
2023-03-02T22:23:56.978Z,101137.70
2023-03-02T22:26:25.102Z,101136.80
2023-03-02T22:28:53.387Z,101135.59
2023-03-02T22:31:22.256Z,101136.49
2023-03-02T22:33:50.214Z,101133.90
2023-03-02T22:36:22.113Z,101132.10
2023-03-02T22:38:50.771Z,101129.35
2023-03-02T22:41:19.913Z,101129.84
2023-03-02T22:43:49.641Z,101126.46
2023-03-02T22:46:20.242Z,101123.67
2023-03-02T22:48:49.952Z,101122.02
2023-03-02T22:51:22.323Z,101119.23
2023-03-02T22:53:58.589Z,101117.70
2023-03-02T22:56:27.581Z,101114.50
2023-03-02T22:58:57.084Z,101116.98
2023-03-02T23:01:30.848Z,101114.86
2023-03-02T23:04:08.193Z,101111.34
2023-03-02T23:06:45.280Z,101111.45
2023-03-02T23:09:17.130Z,101115.59
2023-03-02T23:11:45.606Z,101113.59
2023-03-02T23:14:27.436Z,101110.55
2023-03-02T23:17:15.041Z,101107.14
2023-03-02T23:19:43.066Z,101107.41
2023-03-02T23:22:11.445Z,101103.85
2023-03-02T23:24:39.875Z,101103.37
2023-03-02T23:27:09.706Z,101098.99
2023-03-02T23:29:38.107Z,101097.23
2023-03-02T23:32:06.452Z,101090.73
2023-03-02T23:34:34.565Z,101086.52
2023-03-02T23:37:02.704Z,101084.29
2023-03-02T23:39:30.735Z,101078.88
2023-03-02T23:41:58.977Z,101074.67
2023-03-02T23:44:26.989Z,101070.15
2023-03-02T23:46:55.003Z,101066.86
2023-03-02T23:49:22.979Z,101066.30
2023-03-02T23:51:51.126Z,101061.50
2023-03-02T23:54:19.229Z,101059.23
2023-03-02T23:56:47.287Z,101058.64
2023-03-02T23:59:15.546Z,101055.77
